Time;durP1;ratioP1;P1;durP2;ratioP2;P2;SDS_P1;SDS_P2;PMS_P1;PMS_P2;Temp;Humidity;BMP_temperature;BMP_pressure;BME280_temperature;BME280_humidity;BME280_pressure;Samples;Min_cycle;Max_cycle;Signal;HPM_P1;HPM_P2
2022/02/18 00:04:52;;;;;;;;;65.50;48.00;;;;;;;;2;288085566;288085566;-76
2022/02/18 00:13:08;;;;;;;;;67.00;57.00;;;;;;;;2;261074780;261074780;-76
2022/02/18 00:22:35;;;;;;;;;63.00;44.00;;;;;;;;2;288085276;288085276;-76
2022/02/18 00:30:51;;;;;;;;;70.50;62.50;;;;;;;;2;261074768;261074768;-77
2022/02/18 00:43:38;;;;;;;;;58.00;48.50;;;;;;;;2;288084379;288084379;-76
2022/02/18 00:51:54;;;;;;;;;54.00;45.50;;;;;;;;2;261074275;261074275;-76
2022/02/18 01:01:21;;;;;;;;;70.00;51.50;;;;;;;;2;288087547;288087547;-76
2022/02/18 01:09:37;;;;;;;;;66.00;55.50;;;;;;;;2;261075632;261075632;-76
2022/02/18 01:19:04;;;;;;;;;59.50;46.00;;;;;;;;2;288084282;288084282;-76
2022/02/18 01:27:20;;;;;;;;;51.00;43.50;;;;;;;;2;261077862;261077862;-76
2022/02/18 01:36:47;;;;;;;;;68.50;58.50;;;;;;;;2;288085196;288085196;-76
2022/02/18 01:45:03;;;;;;;;;73.50;57.00;;;;;;;;2;261081485;261081485;-76
2022/02/18 01:54:31;;;;;;;;;102.00;102.00;;;;;;;;2;288084372;288084372;-76
2022/02/18 02:02:47;;;;;;;;;98.50;98.50;;;;;;;;2;261077446;261077446;-75
2022/02/18 02:12:15;;;;;;;;;40.50;40.50;;;;;;;;2;288085568;288085568;-75
2022/02/18 02:20:30;;;;;;;;;124.00;122.50;;;;;;;;2;261079234;261079234;-75
2022/02/18 02:29:58;;;;;;;;;138.50;135.00;;;;;;;;2;288082399;288082399;-75
2022/02/18 02:38:13;;;;;;;;;110.50;110.50;;;;;;;;2;261075584;261075584;-75
2022/02/18 02:47:45;;;;;;;;;84.00;77.50;;;;;;;;2;288091402;288091402;-75
2022/02/18 02:56:00;;;;;;;;;96.00;93.50;;;;;;;;2;261075314;261075314;-75
2022/02/18 03:05:28;;;;;;;;;43.50;43.50;;;;;;;;2;288085002;288085002;-75
2022/02/18 03:13:48;;;;;;;;;41.00;41.00;;;;;;;;2;261077906;261077906;-75
2022/02/18 03:23:16;;;;;;;;;35.00;31.00;;;;;;;;2;288081492;288081492;-75
2022/02/18 03:31:31;;;;;;;;;36.00;32.50;;;;;;;;2;261077480;261077480;-75
2022/02/18 03:41:00;;;;;;;;;0.00;0.00;;;;;;;;2;288081996;288081996;-75
2022/02/18 03:49:15;;;;;;;;;0.00;0.00;;;;;;;;2;261077752;261077752;-75
2022/02/18 03:58:43;;;;;;;;;0.00;0.00;;;;;;;;2;288082953;288082953;-75
2022/02/18 04:06:58;;;;;;;;;0.00;0.00;;;;;;;;2;261075052;261075052;-75
2022/02/18 04:16:27;;;;;;;;;0.00;0.00;;;;;;;;2;288082089;288082089;-75
2022/02/18 04:24:42;;;;;;;;;0.00;0.00;;;;;;;;2;261074105;261074105;-75
2022/02/18 04:34:10;;;;;;;;;0.00;0.00;;;;;;;;2;288082094;288082094;-75
2022/02/18 04:42:25;;;;;;;;;0.00;0.00;;;;;;;;2;261075615;261075615;-75
2022/02/18 04:51:55;;;;;;;;;0.00;0.00;;;;;;;;2;288083074;288083074;-75
2022/02/18 05:00:11;;;;;;;;;0.00;0.00;;;;;;;;2;261076353;261076353;-75
2022/02/18 05:09:39;;;;;;;;;0.00;0.00;;;;;;;;2;288083770;288083770;-75
2022/02/18 05:17:54;;;;;;;;;0.00;0.00;;;;;;;;2;261077398;261077398;-75
2022/02/18 05:27:22;;;;;;;;;0.00;0.00;;;;;;;;2;288084746;288084746;-75
2022/02/18 05:35:37;;;;;;;;;0.00;0.00;;;;;;;;2;261077032;261077032;-75
2022/02/18 05:45:05;;;;;;;;;0.00;0.00;;;;;;;;2;288086343;288086343;-75
2022/02/18 05:53:20;;;;;;;;;0.00;0.00;;;;;;;;2;261077919;261077919;-75
2022/02/18 06:02:48;;;;;;;;;0.00;0.00;;;;;;;;2;288087202;288087202;-75
2022/02/18 06:11:03;;;;;;;;;0.00;0.00;;;;;;;;2;261078562;261078562;-75
2022/02/18 06:20:31;;;;;;;;;0.00;0.00;;;;;;;;2;288082979;288082979;-75
2022/02/18 06:28:46;;;;;;;;;0.00;0.00;;;;;;;;2;261076894;261076894;-75
2022/02/18 06:38:14;;;;;;;;;0.00;0.00;;;;;;;;2;288084334;288084334;-75
2022/02/18 06:46:29;;;;;;;;;0.00;0.00;;;;;;;;2;261079062;261079062;-75
2022/02/18 06:55:57;;;;;;;;;0.00;0.00;;;;;;;;2;288083625;288083625;-76
2022/02/18 07:04:15;;;;;;;;;0.00;0.00;;;;;;;;2;261077514;261077514;-73
2022/02/18 07:13:43;;;;;;;;;0.00;0.00;;;;;;;;2;288084284;288084284;-76
2022/02/18 07:21:59;;;;;;;;;0.00;0.00;;;;;;;;2;261087733;261087733;-75
2022/02/18 07:31:27;;;;;;;;;0.00;0.00;;;;;;;;2;288083459;288083459;-75
2022/02/18 07:39:42;;;;;;;;;0.00;0.00;;;;;;;;2;261077195;261077195;-76
2022/02/18 07:49:10;;;;;;;;;0.00;0.00;;;;;;;;2;288084758;288084758;-75
2022/02/18 07:57:26;;;;;;;;;0.00;0.00;;;;;;;;2;261077425;261077425;-75
2022/02/18 08:06:53;;;;;;;;;0.00;0.00;;;;;;;;2;288081275;288081275;-75
2022/02/18 08:15:09;;;;;;;;;0.00;0.00;;;;;;;;2;261077000;261077000;-75
2022/02/18 08:24:36;;;;;;;;;0.00;0.00;;;;;;;;2;288088079;288088079;-74
2022/02/18 08:32:52;;;;;;;;;0.00;0.00;;;;;;;;2;261076650;261076650;-76
2022/02/18 08:42:20;;;;;;;;;0.00;0.00;;;;;;;;2;288083405;288083405;-76
2022/02/18 08:50:35;;;;;;;;;0.00;0.00;;;;;;;;2;261075384;261075384;-76
2022/02/18 09:00:03;;;;;;;;;0.00;0.00;;;;;;;;2;288085805;288085805;-75
2022/02/18 09:08:21;;;;;;;;;0.00;0.00;;;;;;;;2;261079320;261079320;-76
2022/02/18 09:17:49;;;;;;;;;0.00;0.00;;;;;;;;2;288084341;288084341;-75
2022/02/18 09:26:04;;;;;;;;;0.00;0.00;;;;;;;;2;261080704;261080704;-75
2022/02/18 09:35:32;;;;;;;;;0.00;0.00;;;;;;;;2;288084407;288084407;-75
2022/02/18 09:43:49;;;;;;;;;0.00;0.00;;;;;;;;2;261078008;261078008;-75
2022/02/18 09:53:16;;;;;;;;;0.00;0.00;;;;;;;;2;288085647;288085647;-75
2022/02/18 10:01:32;;;;;;;;;0.00;0.00;;;;;;;;2;261074941;261074941;-75
2022/02/18 10:11:03;;;;;;;;;0.00;0.00;;;;;;;;2;288084537;288084537;-75
2022/02/18 10:19:21;;;;;;;;;0.00;0.00;;;;;;;;2;261079519;261079519;-75
2022/02/18 10:28:56;;;;;;;;;0.00;0.00;;;;;;;;2;288085272;288085272;-76
2022/02/18 10:37:12;;;;;;;;;0.00;0.00;;;;;;;;2;261077599;261077599;-76
2022/02/18 10:46:45;;;;;;;;;0.00;0.00;;;;;;;;2;288085069;288085069;-75
2022/02/18 10:55:06;;;;;;;;;0.00;0.00;;;;;;;;2;261080978;261080978;-76
2022/02/18 11:04:34;;;;;;;;;0.00;0.00;;;;;;;;2;288083694;288083694;-76
2022/02/18 11:12:54;;;;;;;;;0.00;0.00;;;;;;;;2;261075172;261075172;-75
2022/02/18 11:22:22;;;;;;;;;0.00;0.00;;;;;;;;2;288084531;288084531;-76
2022/02/18 11:30:41;;;;;;;;;0.00;0.00;;;;;;;;2;261078318;261078318;-75
2022/02/18 11:40:12;;;;;;;;;0.00;0.00;;;;;;;;2;288088425;288088425;-75
2022/02/18 11:48:39;;;;;;;;;0.00;0.00;;;;;;;;2;261077411;261077411;-75
2022/02/18 11:58:09;;;;;;;;;0.00;0.00;;;;;;;;2;288087646;288087646;-75
2022/02/18 12:06:25;;;;;;;;;0.00;0.00;;;;;;;;2;261077670;261077670;-75
2022/02/18 12:15:58;;;;;;;;;0.00;0.00;;;;;;;;2;288084606;288084606;-75
2022/02/18 12:24:31;;;;;;;;;0.00;0.00;;;;;;;;2;261076992;261076992;-76
2022/02/18 12:33:59;;;;;;;;;0.00;0.00;;;;;;;;2;288082708;288082708;-75
2022/02/18 12:42:16;;;;;;;;;0.00;0.00;;;;;;;;2;261078990;261078990;-75
2022/02/18 12:51:43;;;;;;;;;0.00;0.00;;;;;;;;2;288085270;288085270;-75
2022/02/18 13:00:00;;;;;;;;;0.00;0.00;;;;;;;;2;261082555;261082555;-75
2022/02/18 13:09:31;;;;;;;;;0.00;0.00;;;;;;;;2;288086991;288086991;-75
2022/02/18 13:17:48;;;;;;;;;0.00;0.00;;;;;;;;2;261078107;261078107;-76
2022/02/18 13:27:15;;;;;;;;;0.00;0.00;;;;;;;;2;288084453;288084453;-75
2022/02/18 13:35:32;;;;;;;;;0.00;0.00;;;;;;;;2;261077720;261077720;-76
2022/02/18 13:45:01;;;;;;;;;0.00;0.00;;;;;;;;2;288082566;288082566;-76
2022/02/18 13:53:17;;;;;;;;;0.00;0.00;;;;;;;;2;261079390;261079390;-75
2022/02/18 14:02:47;;;;;;;;;0.00;0.00;;;;;;;;2;288083962;288083962;-75
2022/02/18 14:11:11;;;;;;;;;0.00;0.00;;;;;;;;2;261077422;261077422;-75
2022/02/18 14:20:38;;;;;;;;;0.00;0.00;;;;;;;;2;288086006;288086006;-75
2022/02/18 14:28:55;;;;;;;;;0.00;0.00;;;;;;;;2;261079158;261079158;-75
2022/02/18 14:38:23;;;;;;;;;0.00;0.00;;;;;;;;2;288084417;288084417;-75
2022/02/18 14:46:51;;;;;;;;;0.00;0.00;;;;;;;;2;261075910;261075910;-75
2022/02/18 14:56:18;;;;;;;;;0.00;0.00;;;;;;;;2;288082950;288082950;-75
2022/02/18 15:04:34;;;;;;;;;0.00;0.00;;;;;;;;2;261078173;261078173;-76
2022/02/18 15:14:01;;;;;;;;;0.00;0.00;;;;;;;;2;288090011;288090011;-75
2022/02/18 15:22:17;;;;;;;;;0.00;0.00;;;;;;;;2;261079787;261079787;-75
2022/02/18 15:50:05;;;;;;;;;0.00;0.00;;;;;;;;2;288083306;288083306;-75
2022/02/18 15:58:21;;;;;;;;;0.00;0.00;;;;;;;;2;261076714;261076714;-76
2022/02/18 16:07:49;;;;;;;;;22.00;19.00;;;;;;;;2;288084305;288084305;-75
2022/02/18 16:16:04;;;;;;;;;38.50;35.00;;;;;;;;2;261077937;261077937;-76
2022/02/18 16:25:32;;;;;;;;;8.00;8.00;;;;;;;;2;288084524;288084524;-75
2022/02/18 16:33:47;;;;;;;;;9.00;9.00;;;;;;;;2;261077529;261077529;-75
2022/02/18 16:43:15;;;;;;;;;54.50;45.00;;;;;;;;2;288082765;288082765;-76
2022/02/18 16:51:32;;;;;;;;;88.50;88.50;;;;;;;;2;261074607;261074607;-76
2022/02/18 17:01:00;;;;;;;;;53.50;45.50;;;;;;;;2;288082293;288082293;-76
2022/02/18 17:09:15;;;;;;;;;62.00;51.50;;;;;;;;2;261076838;261076838;-76
2022/02/18 17:18:43;;;;;;;;;70.00;63.50;;;;;;;;2;288084241;288084241;-76
2022/02/18 17:26:58;;;;;;;;;64.00;53.00;;;;;;;;2;261077671;261077671;-76
2022/02/18 17:36:27;;;;;;;;;36.50;33.50;;;;;;;;2;288086075;288086075;-76
2022/02/18 17:44:42;;;;;;;;;42.00;37.00;;;;;;;;2;261082902;261082902;-74
2022/02/18 17:54:10;;;;;;;;;54.00;45.50;;;;;;;;2;288083284;288083284;-75
2022/02/18 18:02:25;;;;;;;;;65.00;48.00;;;;;;;;2;261075959;261075959;-75
2022/02/18 18:11:53;;;;;;;;;52.50;44.50;;;;;;;;2;288087578;288087578;-75
2022/02/18 18:20:09;;;;;;;;;66.50;56.50;;;;;;;;2;261077581;261077581;-76
2022/02/18 18:29:37;;;;;;;;;65.00;54.00;;;;;;;;2;288087095;288087095;-74
2022/02/18 18:37:52;;;;;;;;;56.00;47.00;;;;;;;;2;261076190;261076190;-75
2022/02/18 18:47:20;;;;;;;;;59.00;49.00;;;;;;;;2;288082788;288082788;-75
2022/02/18 18:55:36;;;;;;;;;59.00;49.00;;;;;;;;2;261079053;261079053;-75
2022/02/18 19:05:07;;;;;;;;;66.00;56.50;;;;;;;;2;288086268;288086268;-75
2022/02/18 19:13:24;;;;;;;;;26.50;26.50;;;;;;;;2;261080541;261080541;-74
2022/02/18 19:22:52;;;;;;;;;53.50;45.50;;;;;;;;2;288085089;288085089;-75
2022/02/18 19:31:08;;;;;;;;;43.50;37.00;;;;;;;;2;261078483;261078483;-75
2022/02/18 19:40:36;;;;;;;;;50.50;39.00;;;;;;;;2;288087778;288087778;-76
2022/02/18 19:48:52;;;;;;;;;62.00;51.50;;;;;;;;2;261078655;261078655;-75
2022/02/18 19:58:20;;;;;;;;;57.00;42.50;;;;;;;;2;288090324;288090324;-78
2022/02/18 20:06:35;;;;;;;;;29.50;29.50;;;;;;;;2;261077087;261077087;-77
2022/02/18 20:16:04;;;;;;;;;46.00;40.00;;;;;;;;2;288083259;288083259;-77
2022/02/18 20:24:20;;;;;;;;;54.00;45.50;;;;;;;;2;261077933;261077933;-76
2022/02/18 20:33:49;;;;;;;;;34.00;32.00;;;;;;;;2;288084724;288084724;-76
2022/02/18 20:42:05;;;;;;;;;53.00;45.00;;;;;;;;2;261077949;261077949;-76
2022/02/18 20:51:35;;;;;;;;;63.50;52.50;;;;;;;;2;288083601;288083601;-75
2022/02/18 20:59:52;;;;;;;;;39.50;35.50;;;;;;;;2;261075974;261075974;-75
2022/02/18 21:09:20;;;;;;;;;27.50;26.00;;;;;;;;2;288083063;288083063;-75
2022/02/18 21:17:36;;;;;;;;;52.50;44.50;;;;;;;;2;261075360;261075360;-75
2022/02/18 21:27:03;;;;;;;;;41.00;37.00;;;;;;;;2;288085158;288085158;-75
2022/02/18 21:35:19;;;;;;;;;61.00;50.50;;;;;;;;2;261078402;261078402;-76
2022/02/18 21:44:47;;;;;;;;;49.50;42.50;;;;;;;;2;288082099;288082099;-77
2022/02/18 21:53:05;;;;;;;;;37.50;34.00;;;;;;;;2;261078829;261078829;-77
2022/02/18 22:02:32;;;;;;;;;57.00;48.00;;;;;;;;2;288085862;288085862;-76
2022/02/18 22:10:48;;;;;;;;;50.50;43.00;;;;;;;;2;261079441;261079441;-76
2022/02/18 22:20:16;;;;;;;;;41.50;37.00;;;;;;;;2;288082356;288082356;-75
2022/02/18 22:28:32;;;;;;;;;56.00;47.00;;;;;;;;2;261074909;261074909;-76
2022/02/18 22:38:00;;;;;;;;;46.00;40.00;;;;;;;;2;288081294;288081294;-76
2022/02/18 22:46:16;;;;;;;;;48.00;41.50;;;;;;;;2;261079160;261079160;-76
2022/02/18 22:55:43;;;;;;;;;58.50;48.50;;;;;;;;2;288085209;288085209;-76
2022/02/18 23:03:59;;;;;;;;;60.00;49.50;;;;;;;;2;261075234;261075234;-76
2022/02/18 23:13:27;;;;;;;;;59.00;49.00;;;;;;;;2;288080662;288080662;-76
2022/02/18 23:21:42;;;;;;;;;46.50;40.00;;;;;;;;2;261079199;261079199;-76
2022/02/18 23:31:10;;;;;;;;;62.00;51.50;;;;;;;;2;288086337;288086337;-75
2022/02/18 23:39:26;;;;;;;;;52.50;44.50;;;;;;;;2;261076548;261076548;-76
2022/02/18 23:48:54;;;;;;;;;58.00;49.00;;;;;;;;2;288085807;288085807;-76
2022/02/18 23:57:09;;;;;;;;;67.00;58.00;;;;;;;;2;261077681;261077681;-76
